Time;durP1;ratioP1;P1;durP2;ratioP2;P2;SDS_P1;SDS_P2;PMS_P1;PMS_P2;Temp;Humidity;BMP_temperature;BMP_pressure;BME280_temperature;BME280_humidity;BME280_pressure;Samples;Min_cycle;Max_cycle;Signal;HPM_P1;HPM_P2
2021/10/27 00:01:11;;;;;;;13.33;10.47;;;;;;;2.79;100.00;98960.53;4935237;28;20313;-71
2021/10/27 00:03:39;;;;;;;25.80;17.20;;;;;;;2.78;100.00;98965.88;4928101;28;20298;-71
2021/10/27 00:06:09;;;;;;;10.47;9.50;;;;;;;2.75;100.00;98970.34;4909581;28;21428;-70
2021/10/27 00:08:37;;;;;;;10.53;9.57;;;;;;;2.74;100.00;98970.44;4938013;28;20219;-71
2021/10/27 00:11:05;;;;;;;11.73;10.63;;;;;;;2.74;100.00;98967.81;4937882;28;20262;-71
2021/10/27 00:13:33;;;;;;;11.53;10.23;;;;;;;2.77;100.00;98972.84;4933447;28;20214;-70
2021/10/27 00:16:02;;;;;;;11.20;10.13;;;;;;;2.68;100.00;98965.56;4939500;28;20701;-71
2021/10/27 00:18:31;;;;;;;12.67;10.43;;;;;;;2.60;100.00;98973.84;4927217;28;20221;-70
2021/10/27 00:20:59;;;;;;;11.33;10.17;;;;;;;2.62;100.00;98971.16;4925419;28;20512;-72
2021/10/27 00:23:29;;;;;;;12.07;10.13;;;;;;;2.64;100.00;98964.88;4919705;28;20450;-71
2021/10/27 00:25:57;;;;;;;10.30;9.37;;;;;;;2.55;100.00;98968.91;4944142;28;20550;-71
2021/10/27 00:28:25;;;;;;;10.80;9.70;;;;;;;2.54;100.00;98967.22;4936149;28;20426;-71
2021/10/27 00:30:53;;;;;;;10.27;9.37;;;;;;;2.47;100.00;98963.28;4939787;28;20233;-71
2021/10/27 00:33:22;;;;;;;10.20;9.23;;;;;;;2.49;100.00;98965.78;4922969;28;20330;-71
2021/10/27 00:35:50;;;;;;;10.70;9.80;;;;;;;2.42;100.00;98966.16;4936501;28;20265;-71
2021/10/27 00:38:18;;;;;;;11.40;10.40;;;;;;;2.38;100.00;98959.41;4907097;28;20429;-71
2021/10/27 00:40:48;;;;;;;13.80;10.03;;;;;;;2.40;100.00;98962.78;4939670;28;20322;-71
2021/10/27 00:43:16;;;;;;;9.47;8.67;;;;;;;2.45;100.00;98960.72;4938161;28;20423;-70
2021/10/27 00:45:44;;;;;;;10.97;9.97;;;;;;;2.46;100.00;98957.19;4938949;28;20572;-70
2021/10/27 00:48:12;;;;;;;11.47;10.40;;;;;;;2.44;100.00;98955.56;4922950;28;20218;-72
2021/10/27 00:50:40;;;;;;;11.33;9.60;;;;;;;2.39;100.00;98950.63;4936829;28;20247;-70
2021/10/27 00:53:08;;;;;;;10.07;9.13;;;;;;;2.36;100.00;98949.94;4904346;28;20601;-71
2021/10/27 00:55:36;;;;;;;9.90;8.97;;;;;;;2.25;100.00;98943.56;4940947;28;20217;-71
2021/10/27 00:58:06;;;;;;;10.40;9.50;;;;;;;2.22;100.00;98946.34;4934671;28;20215;-71
2021/10/27 01:00:35;;;;;;;10.23;8.80;;;;;;;2.19;100.00;98950.91;4937222;28;20231;-70
2021/10/27 01:03:03;;;;;;;9.87;8.97;;;;;;;2.16;100.00;98949.31;4927944;28;20234;-74
2021/10/27 01:05:31;;;;;;;11.87;9.13;;;;;;;2.17;100.00;98948.41;4931813;28;20218;-70
2021/10/27 01:07:59;;;;;;;9.90;9.00;;;;;;;2.17;100.00;98944.00;4907013;28;20230;-71
2021/10/27 01:10:27;;;;;;;9.73;8.93;;;;;;;2.14;100.00;98946.78;4936818;28;20218;-70
2021/10/27 01:12:55;;;;;;;9.63;8.80;;;;;;;2.11;100.00;98951.38;4936484;28;20211;-71
2021/10/27 01:15:24;;;;;;;10.40;9.50;;;;;;;2.20;100.00;98948.22;4935077;28;20664;-71
2021/10/27 01:17:53;;;;;;;9.77;8.97;;;;;;;2.34;100.00;98951.81;4939228;28;20211;-71
2021/10/27 01:20:22;;;;;;;10.67;9.77;;;;;;;2.33;100.00;98950.13;4924176;28;20219;-70
2021/10/27 01:22:50;;;;;;;9.60;8.70;;;;;;;2.28;100.00;98953.84;4911823;28;20706;-70
2021/10/27 01:25:18;;;;;;;7.80;7.20;;;;;;;2.27;100.00;98949.56;4939453;28;20211;-71
2021/10/27 01:27:47;;;;;;;7.40;6.80;;;;;;;2.25;100.00;98950.56;4940213;28;20210;-71
2021/10/27 01:30:17;;;;;;;10.87;9.07;;;;;;;2.28;100.00;98956.47;4938062;28;20199;-71
2021/10/27 01:32:47;;;;;;;9.83;8.83;;;;;;;2.56;100.00;98951.41;4939393;28;20238;-70
2021/10/27 01:35:15;;;;;;;9.70;8.80;;;;;;;2.46;100.00;98953.72;4925829;28;20222;-71
2021/10/27 01:37:46;;;;;;;9.90;8.47;;;;;;;2.55;100.00;98953.19;4938765;28;20223;-70
2021/10/27 01:40:17;;;;;;;9.27;8.37;;;;;;;2.49;100.00;98960.56;4906571;28;20230;-70
2021/10/27 01:42:45;;;;;;;9.33;8.53;;;;;;;2.37;100.00;98960.34;4947358;28;20226;-70
2021/10/27 01:45:14;;;;;;;8.57;7.77;;;;;;;2.27;100.00;98964.38;4905520;28;20223;-70
2021/10/27 01:47:43;;;;;;;9.10;8.30;;;;;;;2.25;100.00;98964.50;4937993;28;20659;-71
2021/10/27 01:50:12;;;;;;;9.97;8.97;;;;;;;2.20;100.00;98961.28;4939670;28;20734;-71
2021/10/27 01:52:40;;;;;;;9.20;8.40;;;;;;;2.15;100.00;98958.94;4941108;28;20207;-71
2021/10/27 01:55:10;;;;;;;9.27;8.47;;;;;;;2.08;100.00;98954.13;4938125;28;20211;-71
2021/10/27 01:57:38;;;;;;;7.80;7.00;;;;;;;2.02;100.00;98963.19;4937995;28;20207;-70
2021/10/27 02:00:08;;;;;;;8.37;7.57;;;;;;;1.94;100.00;98960.97;4906556;28;20370;-71
2021/10/27 02:02:36;;;;;;;8.13;7.43;;;;;;;1.94;100.00;98968.81;4939965;28;20234;-70
2021/10/27 02:05:05;;;;;;;8.13;7.43;;;;;;;1.93;100.00;98968.94;4937065;28;20257;-70
2021/10/27 02:07:33;;;;;;;8.20;7.40;;;;;;;1.91;100.00;98969.00;4943112;28;20238;-70
2021/10/27 02:10:01;;;;;;;9.53;8.53;;;;;;;1.90;100.00;98967.31;4938339;28;20218;-71
2021/10/27 02:12:30;;;;;;;9.33;8.47;;;;;;;1.96;100.00;98966.13;4942332;28;20282;-70
2021/10/27 02:14:59;;;;;;;8.87;8.10;;;;;;;1.94;100.00;98966.22;4916004;28;20218;-71
2021/10/27 02:17:27;;;;;;;9.47;7.73;;;;;;;1.88;100.00;98969.16;4943190;28;20394;-71
2021/10/27 02:19:55;;;;;;;8.97;8.20;;;;;;;1.88;100.00;98977.00;4938192;28;20219;-72
2021/10/27 02:22:23;;;;;;;8.23;7.43;;;;;;;1.83;100.00;98968.59;4940344;28;20521;-71
2021/10/27 02:24:52;;;;;;;10.33;7.77;;;;;;;1.83;100.00;98974.63;4941836;28;20213;-72
2021/10/27 02:27:20;;;;;;;9.23;8.33;;;;;;;1.89;100.00;98978.69;4919063;28;20226;-71
2021/10/27 02:29:49;;;;;;;11.30;8.70;;;;;;;1.85;100.00;98982.41;4934677;28;20230;-71
2021/10/27 02:32:17;;;;;;;8.10;7.40;;;;;;;1.81;100.00;98973.88;4909134;28;20697;-70
2021/10/27 02:34:45;;;;;;;8.33;7.67;;;;;;;1.87;100.00;98983.16;4934492;28;20854;-69
2021/10/27 02:37:13;;;;;;;8.87;7.97;;;;;;;1.92;100.00;98988.16;4934631;28;20595;-69
2021/10/27 02:39:41;;;;;;;8.70;7.90;;;;;;;1.85;100.00;98987.63;4929394;28;20254;-69
2021/10/27 02:42:09;;;;;;;8.87;8.03;;;;;;;1.82;100.00;98987.81;4935853;28;20231;-68
2021/10/27 02:44:37;;;;;;;9.83;8.20;;;;;;;1.90;100.00;98988.22;4935874;28;20219;-69
2021/10/27 02:47:06;;;;;;;8.67;7.90;;;;;;;2.01;100.00;98987.63;4908777;28;20223;-68
2021/10/27 02:49:34;;;;;;;9.87;8.87;;;;;;;1.93;100.00;98987.22;4932932;28;20658;-70
2021/10/27 02:52:03;;;;;;;9.17;8.37;;;;;;;1.77;100.00;98979.38;4931941;28;20231;-69
2021/10/27 02:54:31;;;;;;;8.73;7.83;;;;;;;1.70;100.00;98987.53;4919419;28;20214;-70
2021/10/27 02:56:59;;;;;;;8.47;7.70;;;;;;;1.70;100.00;98987.53;4934003;28;20398;-70
2021/10/27 02:59:27;;;;;;;9.17;8.27;;;;;;;1.65;100.00;98993.94;4942155;28;20583;-70
2021/10/27 03:01:55;;;;;;;8.17;7.37;;;;;;;1.58;100.00;98996.03;4907455;28;20249;-70
2021/10/27 03:04:24;;;;;;;8.70;7.93;;;;;;;1.50;100.00;98986.00;4938683;28;20354;-69
2021/10/27 03:06:52;;;;;;;8.63;7.93;;;;;;;1.48;100.00;98989.63;4939832;28;20527;-70
2021/10/27 03:09:20;;;;;;;9.20;8.30;;;;;;;1.49;100.00;98996.53;4922587;28;20215;-70
2021/10/27 03:11:48;;;;;;;8.57;7.87;;;;;;;1.51;100.00;98990.28;4932971;28;20373;-70
2021/10/27 03:14:16;;;;;;;7.47;6.83;;;;;;;1.43;100.00;98990.72;4939886;28;20671;-70
2021/10/27 03:16:44;;;;;;;7.43;6.73;;;;;;;1.36;100.00;98986.75;4904196;28;21166;-70
2021/10/27 03:19:12;;;;;;;8.60;7.80;;;;;;;1.33;100.00;98986.06;4937848;28;20242;-70
2021/10/27 03:21:42;;;;;;;8.53;7.80;;;;;;;1.31;100.00;98983.50;4937714;28;20378;-70
2021/10/27 03:24:10;;;;;;;7.67;6.97;;;;;;;1.28;100.00;98994.13;4940251;28;20238;-69
2021/10/27 03:26:38;;;;;;;8.03;7.33;;;;;;;1.25;100.00;98987.31;4938818;28;20637;-71
2021/10/27 03:29:06;;;;;;;7.20;6.70;;;;;;;1.21;100.00;98985.78;4943143;28;20209;-70
2021/10/27 03:31:34;;;;;;;7.40;6.83;;;;;;;1.17;100.00;98986.88;4916871;28;20880;-70
2021/10/27 03:34:03;;;;;;;8.07;7.37;;;;;;;1.21;100.00;98979.69;4934943;28;20560;-70
2021/10/27 03:36:31;;;;;;;7.70;7.03;;;;;;;1.28;100.00;98978.44;4939745;28;20233;-71
2021/10/27 03:39:00;;;;;;;8.67;7.97;;;;;;;1.34;100.00;98987.75;4933157;28;20222;-71
2021/10/27 03:41:28;;;;;;;8.17;7.57;;;;;;;1.38;100.00;98990.13;4919811;28;20827;-70
2021/10/27 03:43:56;;;;;;;8.97;8.17;;;;;;;1.39;100.00;98986.59;4933034;28;20451;-70
2021/10/27 03:46:25;;;;;;;8.00;6.97;;;;;;;1.47;100.00;98982.72;4935667;28;20218;-70
2021/10/27 03:48:53;;;;;;;8.80;7.93;;;;;;;1.51;100.00;98979.84;4909705;28;20444;-70
2021/10/27 03:51:21;;;;;;;8.67;7.97;;;;;;;1.55;100.00;98989.22;4944694;28;20230;-70
2021/10/27 03:53:49;;;;;;;8.10;7.30;;;;;;;1.54;100.00;98991.91;4903822;28;20215;-71
2021/10/27 03:56:18;;;;;;;10.10;8.70;;;;;;;1.56;100.00;98990.06;4945091;28;20203;-70
2021/10/27 03:58:46;;;;;;;9.47;8.53;;;;;;;1.51;100.00;98995.50;4935850;28;20611;-71
2021/10/27 04:01:14;;;;;;;10.20;9.30;;;;;;;1.46;100.00;98994.09;4936497;28;20302;-70
2021/10/27 04:03:44;;;;;;;9.43;8.63;;;;;;;1.43;100.00;98998.56;4922367;28;20293;-71
2021/10/27 04:06:12;;;;;;;8.23;7.53;;;;;;;1.36;100.00;99002.41;4930898;28;20556;-70
2021/10/27 04:08:40;;;;;;;9.60;8.50;;;;;;;1.28;100.00;99008.03;4894982;28;20226;-68
2021/10/27 04:11:09;;;;;;;9.63;8.47;;;;;;;1.26;100.00;99006.41;4934799;28;20496;-69
2021/10/27 04:13:40;;;;;;;9.83;8.93;;;;;;;1.26;100.00;99009.88;4935257;28;20207;-69
2021/10/27 04:16:08;;;;;;;9.03;8.13;;;;;;;1.22;100.00;99008.34;4938532;28;20447;-69
2021/10/27 04:18:36;;;;;;;9.43;8.50;;;;;;;1.16;100.00;99006.06;4935788;28;20211;-69
2021/10/27 04:21:04;;;;;;;8.20;7.40;;;;;;;1.15;100.00;99013.03;4924209;28;20246;-68
2021/10/27 04:23:32;;;;;;;8.63;7.73;;;;;;;1.13;100.00;99011.41;4892301;28;20746;-66
2021/10/27 04:26:00;;;;;;;7.73;7.03;;;;;;;1.08;100.00;99005.59;4929087;28;20246;-69
2021/10/27 04:28:28;;;;;;;8.00;7.30;;;;;;;1.08;100.00;99010.81;4933487;28;20540;-66
2021/10/27 04:30:58;;;;;;;8.13;7.43;;;;;;;1.08;100.00;99010.81;4935827;28;20234;-69
2021/10/27 04:33:26;;;;;;;9.20;8.27;;;;;;;1.06;100.00;99010.06;4935366;28;20762;-69
2021/10/27 04:35:54;;;;;;;9.67;8.67;;;;;;;1.04;100.00;99010.16;4942626;28;20210;-68
2021/10/27 04:38:22;;;;;;;10.47;8.37;;;;;;;1.11;100.00;99008.03;4929042;28;20230;-69
2021/10/27 04:40:51;;;;;;;9.43;8.53;;;;;;;1.09;100.00;99008.16;4910996;28;20797;-67
2021/10/27 04:43:19;;;;;;;8.77;8.07;;;;;;;1.08;100.00;99003.84;4932872;28;20217;-67
2021/10/27 04:45:47;;;;;;;10.47;8.17;;;;;;;1.11;100.00;99006.28;4941471;28;20610;-67
2021/10/27 04:48:17;;;;;;;9.10;8.23;;;;;;;1.05;100.00;99001.41;4936470;28;20219;-68
2021/10/27 04:50:45;;;;;;;8.97;8.17;;;;;;;1.03;100.00;99000.63;4924061;28;20372;-68
2021/10/27 04:53:16;;;;;;;9.03;8.17;;;;;;;1.00;100.00;99006.00;4938516;28;20226;-70
2021/10/27 04:55:44;;;;;;;8.97;8.27;;;;;;;0.99;100.00;99006.94;4913144;28;20214;-69
2021/10/27 04:58:12;;;;;;;9.63;8.40;;;;;;;0.91;100.00;99001.25;4933313;28;20225;-70
2021/10/27 05:00:40;;;;;;;9.07;8.17;;;;;;;0.99;100.00;99002.53;4940754;28;20231;-71
2021/10/27 05:03:09;;;;;;;9.70;8.53;;;;;;;1.04;100.00;99010.16;4937657;28;20203;-70
2021/10/27 05:05:45;;;;;;;9.47;8.50;;;;;;;1.04;100.00;99004.06;4938947;28;20408;-70
2021/10/27 05:08:18;;;;;;;9.53;8.73;;;;;;;0.98;100.00;99008.69;4940400;28;20207;-71
2021/10/27 05:10:46;;;;;;;11.60;8.50;;;;;;;0.90;100.00;99020.44;4907451;28;20796;-70
2021/10/27 05:13:14;;;;;;;10.30;8.40;;;;;;;0.91;100.00;99015.16;4934650;28;20211;-70
2021/10/27 05:15:42;;;;;;;8.77;7.87;;;;;;;0.92;100.00;99018.59;4938087;28;20226;-70
2021/10/27 05:18:10;;;;;;;8.43;7.73;;;;;;;0.88;100.00;99010.09;4941711;28;20202;-70
2021/10/27 05:20:39;;;;;;;9.40;8.50;;;;;;;0.87;100.00;99005.78;4940378;28;20231;-70
2021/10/27 05:23:08;;;;;;;8.63;7.93;;;;;;;0.96;100.00;99000.09;4939943;28;20429;-70
2021/10/27 05:25:36;;;;;;;8.80;8.00;;;;;;;0.81;100.00;98991.28;4927587;28;20238;-70
2021/10/27 05:28:05;;;;;;;10.60;9.50;;;;;;;0.92;100.00;99001.19;4919648;28;20722;-70
2021/10/27 05:30:33;;;;;;;13.03;9.87;;;;;;;0.86;100.00;98999.72;4945225;28;20219;-69
2021/10/27 05:33:01;;;;;;;11.93;9.67;;;;;;;1.01;100.00;99003.31;4937496;28;20222;-71
2021/10/27 05:35:30;;;;;;;9.97;8.87;;;;;;;1.07;100.00;98996.06;4905394;28;20697;-71
2021/10/27 05:38:01;;;;;;;8.87;8.03;;;;;;;1.06;100.00;99007.44;4939773;28;20222;-70
2021/10/27 05:40:29;;;;;;;10.13;8.40;;;;;;;1.18;100.00;99019.03;4923581;28;20769;-71
2021/10/27 05:42:57;;;;;;;9.57;8.57;;;;;;;1.15;100.00;99020.06;4896702;28;20219;-70
2021/10/27 05:45:27;;;;;;;8.77;7.83;;;;;;;1.19;100.00;99020.72;4927161;28;20228;-69
2021/10/27 05:47:57;;;;;;;10.10;9.07;;;;;;;1.19;100.00;99024.19;4943128;28;20211;-69
2021/10/27 05:50:31;;;;;;;8.70;7.97;;;;;;;1.15;100.00;99022.66;4930564;28;20207;-69
2021/10/27 05:55:47;;;;;;;10.03;9.07;;;;;;;1.24;100.00;99031.75;4930535;28;20206;-71
2021/10/27 05:58:15;;;;;;;13.13;10.37;;;;;;;1.29;100.00;99027.16;4911633;28;20219;-71
2021/10/27 06:00:44;;;;;;;9.30;8.43;;;;;;;1.38;100.00;99024.06;4913863;28;20237;-70
2021/10/27 06:03:13;;;;;;;11.03;9.07;;;;;;;1.34;100.00;99026.91;4940502;28;20671;-70
2021/10/27 06:05:41;;;;;;;9.60;8.80;;;;;;;1.39;100.00;99030.13;4938046;28;20234;-70
2021/10/27 06:08:10;;;;;;;9.60;8.60;;;;;;;1.48;100.00;99034.88;4940358;28;20305;-71
2021/10/27 06:10:38;;;;;;;8.83;8.00;;;;;;;1.48;100.00;99037.47;4938948;28;20322;-71
2021/10/27 06:13:08;;;;;;;9.60;8.60;;;;;;;1.54;100.00;99037.19;4940868;28;20218;-71
2021/10/27 06:15:37;;;;;;;10.23;8.97;;;;;;;1.56;100.00;99035.31;4911129;28;20214;-72
2021/10/27 06:18:05;;;;;;;10.67;9.77;;;;;;;1.64;100.00;99036.69;4942336;28;20611;-69
2021/10/27 06:20:33;;;;;;;9.93;9.03;;;;;;;1.65;100.00;99043.59;4942075;28;20215;-70
2021/10/27 06:23:22;;;;;;;12.13;9.53;;;;;;;1.78;100.00;99044.63;4936947;28;20545;-70
2021/10/27 06:25:51;;;;;;;11.63;10.53;;;;;;;1.79;100.00;99048.91;4936824;28;20533;-70
2021/10/27 06:28:23;;;;;;;11.27;10.20;;;;;;;1.90;100.00;99044.91;4939438;28;20511;-70
2021/10/27 06:30:54;;;;;;;12.30;11.00;;;;;;;1.81;100.00;99052.28;4905522;28;20250;-70
2021/10/27 06:33:40;;;;;;;11.27;9.47;;;;;;;1.98;100.00;99061.00;4941845;28;20210;-71
2021/10/27 06:36:12;;;;;;;10.07;9.07;;;;;;;1.90;100.00;99056.19;4938175;28;20214;-70
2021/10/27 06:38:58;;;;;;;13.70;9.27;;;;;;;1.99;100.00;99063.53;4938570;28;20687;-69
2021/10/27 06:47:08;;;;;;;13.00;10.10;;;;;;;2.24;100.00;99070.03;4896941;28;20534;-70
2021/10/27 06:49:36;;;;;;;10.03;9.07;;;;;;;2.12;100.00;99068.94;4938441;28;20215;-70
2021/10/27 06:52:05;;;;;;;9.67;8.73;;;;;;;2.16;100.00;99067.84;4940254;28;20226;-70
2021/10/27 06:54:33;;;;;;;9.70;8.63;;;;;;;2.27;100.00;99072.50;4939177;28;20221;-70
2021/10/27 06:57:03;;;;;;;10.10;9.20;;;;;;;2.30;100.00;99069.69;4934510;28;20207;-70
2021/10/27 06:59:33;;;;;;;9.53;8.63;;;;;;;2.38;100.00;99074.53;4939535;28;20710;-69
2021/10/27 07:05:04;;;;;;;9.60;8.77;;;;;;;2.54;100.00;99077.13;4930798;28;20419;-71
2021/10/27 07:15:50;;;;;;;11.03;9.60;;;;;;;2.91;100.00;99089.06;4937569;28;20352;-70
2021/10/27 07:18:18;;;;;;;9.37;8.43;;;;;;;2.84;100.00;99094.66;4914899;28;20710;-71
2021/10/27 07:20:46;;;;;;;9.53;8.67;;;;;;;2.76;100.00;99094.22;4935668;28;20254;-71
2021/10/27 07:23:14;;;;;;;9.67;8.80;;;;;;;2.87;100.00;99093.59;4942628;28;20207;-71
2021/10/27 07:25:43;;;;;;;8.53;7.83;;;;;;;2.93;100.00;99101.09;4936906;28;20525;-71
2021/10/27 07:28:13;;;;;;;8.97;8.27;;;;;;;3.08;100.00;99101.16;4938900;28;20666;-70
2021/10/27 07:30:44;;;;;;;9.63;8.77;;;;;;;3.22;100.00;99098.59;4941006;28;20231;-71
2021/10/27 07:33:12;;;;;;;9.53;8.63;;;;;;;3.25;100.00;99102.81;4909572;28;20219;-72
2021/10/27 07:35:44;;;;;;;9.70;8.70;;;;;;;3.45;100.00;99110.31;4940917;28;20203;-71
2021/10/27 07:40:58;;;;;;;9.73;8.83;;;;;;;3.72;100.00;99112.22;4942235;28;20745;-71
2021/10/27 07:43:30;;;;;;;9.90;8.83;;;;;;;3.73;100.00;99121.78;4936369;28;20431;-70
2021/10/27 07:45:58;;;;;;;9.33;8.43;;;;;;;3.78;100.00;99120.66;4938934;28;20257;-71
2021/10/27 07:48:26;;;;;;;9.23;8.33;;;;;;;3.83;100.00;99122.06;4906254;28;20221;-70
2021/10/27 07:50:54;;;;;;;8.87;8.17;;;;;;;3.93;100.00;99122.34;4945266;28;20241;-71
2021/10/27 07:53:23;;;;;;;9.07;8.20;;;;;;;4.25;100.00;99123.94;4932035;28;20584;-70
2021/10/27 07:55:52;;;;;;;9.70;8.77;;;;;;;4.39;100.00;99125.69;4936985;28;20292;-71
2021/10/27 07:58:21;;;;;;;9.70;8.80;;;;;;;4.39;100.00;99123.06;4939694;28;20374;-70
2021/10/27 08:00:51;;;;;;;8.37;7.57;;;;;;;4.50;100.00;99131.09;4939130;28;20235;-71
2021/10/27 08:03:20;;;;;;;9.30;8.50;;;;;;;4.78;100.00;99131.97;4920704;28;20358;-70
2021/10/27 08:05:48;;;;;;;9.57;8.77;;;;;;;4.80;100.00;99123.97;4926836;28;20238;-72
2021/10/27 08:08:21;;;;;;;9.60;8.67;;;;;;;4.98;100.00;99116.69;4903823;28;20321;-70
2021/10/27 08:10:49;;;;;;;8.83;7.93;;;;;;;5.09;100.00;99123.84;4921741;28;20238;-72
2021/10/27 08:13:17;;;;;;;9.57;8.77;;;;;;;5.15;100.00;99116.41;4931737;28;20211;-70
2021/10/27 08:15:45;;;;;;;9.37;8.63;;;;;;;5.32;100.00;99117.94;4940657;28;20207;-71
2021/10/27 08:18:16;;;;;;;8.53;7.83;;;;;;;5.34;100.00;99126.53;4924752;28;20226;-71
2021/10/27 08:20:46;;;;;;;9.10;8.33;;;;;;;5.27;100.00;99124.41;4938506;28;20233;-71
2021/10/27 08:23:15;;;;;;;8.97;8.33;;;;;;;5.38;100.00;99118.47;4909693;28;20211;-70
2021/10/27 08:25:49;;;;;;;8.63;7.93;;;;;;;5.36;100.00;99129.06;4938468;28;20207;-72
2021/10/27 08:28:18;;;;;;;10.57;8.83;;;;;;;5.40;100.00;99129.72;4932610;28;20212;-70
2021/10/27 08:30:52;;;;;;;9.97;8.97;;;;;;;5.52;100.00;99128.88;4945259;28;20254;-70
2021/10/27 08:33:34;;;;;;;9.33;8.53;;;;;;;5.67;100.00;99132.25;4925013;28;20844;-72
2021/10/27 08:36:02;;;;;;;10.53;9.67;;;;;;;5.71;100.00;99119.75;4941614;28;20221;-70
2021/10/27 08:38:30;;;;;;;10.43;9.53;;;;;;;5.87;100.00;99125.63;4936131;28;20210;-71
2021/10/27 08:41:01;;;;;;;9.57;8.57;;;;;;;6.15;100.00;99122.88;4912838;28;20533;-71
2021/10/27 08:43:29;;;;;;;9.40;8.60;;;;;;;6.40;100.00;99123.78;4940826;28;20542;-72
2021/10/27 08:45:57;;;;;;;8.47;7.77;;;;;;;6.40;100.00;99119.34;4944206;28;20214;-71
2021/10/27 08:48:27;;;;;;;9.30;8.47;;;;;;;6.42;100.00;99119.25;4927974;28;21016;-70
2021/10/27 08:50:55;;;;;;;8.43;7.73;;;;;;;6.45;100.00;99122.50;4943203;28;20699;-72
2021/10/27 08:53:24;;;;;;;8.60;7.90;;;;;;;6.69;100.00;99120.84;4921825;28;20584;-70
2021/10/27 08:55:52;;;;;;;9.20;8.30;;;;;;;6.77;100.00;99127.22;4908332;28;20448;-70
2021/10/27 08:58:25;;;;;;;8.33;7.63;;;;;;;6.80;100.00;99126.16;4941082;28;20211;-71
2021/10/27 09:01:01;;;;;;;9.17;8.27;;;;;;;6.88;100.00;99130.88;4915513;28;20535;-70
2021/10/27 09:03:40;;;;;;;8.27;7.63;;;;;;;6.96;100.00;99123.25;4940277;28;20305;-71
2021/10/27 09:06:18;;;;;;;9.23;8.33;;;;;;;7.03;100.00;99124.47;4938739;28;20694;-71
2021/10/27 09:09:23;;;;;;;9.03;8.07;;;;;;;7.41;100.00;99127.00;4943758;28;20436;-70
2021/10/27 09:15:07;;;;;;;8.57;7.87;;;;;;;7.87;100.00;99117.38;4927385;28;20226;-71
2021/10/27 09:34:30;;;;;;;9.00;8.23;;;;;;;8.60;100.00;99103.75;4926566;28;20219;-70
2021/10/27 10:05:21;;;;;;;10.80;9.60;;;;;;;10.20;100.00;99075.41;4881213;29;20216;-70
2021/10/27 10:07:51;;;;;;;9.07;8.27;;;;;;;10.17;100.00;99075.66;4912991;28;20227;-70
2021/10/27 10:10:20;;;;;;;8.47;7.67;;;;;;;10.61;100.00;99070.09;4939662;28;20214;-70
2021/10/27 10:12:50;;;;;;;8.93;7.80;;;;;;;10.61;100.00;99062.13;4900929;28;20247;-70
2021/10/27 10:15:23;;;;;;;8.33;7.53;;;;;;;10.81;100.00;99065.63;4898150;28;20210;-70
2021/10/27 10:17:52;;;;;;;8.93;8.07;;;;;;;10.67;100.00;99063.41;4931434;28;20493;-70
2021/10/27 10:20:21;;;;;;;9.10;7.63;;;;;;;10.98;100.00;99064.09;4943888;28;20295;-71
2021/10/27 10:23:20;;;;;;;8.17;7.47;;;;;;;10.92;100.00;99059.34;4924279;28;20215;-71
2021/10/27 10:25:54;;;;;;;8.53;7.83;;;;;;;11.19;100.00;99063.13;4941971;28;20722;-71
2021/10/27 10:28:25;;;;;;;7.40;6.80;;;;;;;11.21;100.00;99071.78;4937658;28;20231;-72
2021/10/27 10:30:56;;;;;;;8.97;7.40;;;;;;;11.42;100.00;99063.63;4903006;28;20714;-71
2021/10/27 10:33:40;;;;;;;7.97;6.93;;;;;;;11.44;100.00;99053.72;4939669;28;20226;-71
2021/10/27 10:36:12;;;;;;;7.20;6.60;;;;;;;11.39;100.00;99053.31;4940755;28;20206;-71
2021/10/27 10:45:19;;;;;;;7.00;6.37;;;;;;;11.68;100.00;99060.31;4938293;28;20214;-70
2021/10/27 11:02:38;;;;;;;5.07;4.57;;;;;;;13.14;100.00;99034.81;4911268;28;20234;-71
2021/10/27 11:25:13;;;;;;;4.37;4.03;;;;;;;13.56;100.00;99010.16;4905030;29;20269;-70
2021/10/27 11:39:20;;;;;;;2.97;2.27;;;;;;;14.55;100.00;98996.31;4942713;28;20206;-69
2021/10/27 11:41:54;;;;;;;2.50;2.40;;;;;;;14.83;100.00;98992.50;4925638;28;20241;-71
2021/10/27 11:44:33;;;;;;;3.47;2.90;;;;;;;15.12;100.00;98991.97;4924714;28;20203;-71
2021/10/27 11:47:07;;;;;;;3.07;2.87;;;;;;;15.39;100.00;98994.47;4941618;28;20225;-71
2021/10/27 11:49:39;;;;;;;4.03;2.40;;;;;;;14.82;100.00;98989.03;4881465;28;20232;-71
2021/10/27 11:52:07;;;;;;;3.57;2.43;;;;;;;15.20;100.00;98985.81;4940564;28;20245;-71
2021/10/27 11:54:36;;;;;;;2.97;2.73;;;;;;;15.78;100.00;98972.28;4933131;28;20234;-72
2021/10/27 11:57:04;;;;;;;2.53;2.33;;;;;;;15.86;100.00;98974.94;4925455;28;20497;-70
2021/10/27 11:59:40;;;;;;;4.60;2.77;;;;;;;16.01;99.07;98974.22;4937579;28;20214;-71
2021/10/27 12:02:08;;;;;;;3.60;2.33;;;;;;;16.20;98.02;98971.09;4939620;28;20722;-72
2021/10/27 12:04:39;;;;;;;3.10;2.63;;;;;;;16.13;94.76;98959.47;4881926;28;20798;-69
2021/10/27 12:07:16;;;;;;;2.87;2.60;;;;;;;16.54;86.80;98961.00;4943025;28;20647;-69
2021/10/27 12:09:51;;;;;;;2.63;2.17;;;;;;;16.48;90.66;98957.22;4940647;28;20766;-69
2021/10/27 12:12:46;;;;;;;7.63;2.70;;;;;;;16.62;88.11;98963.59;4930095;28;20250;-69
2021/10/27 12:15:40;;;;;;;2.77;2.57;;;;;;;16.96;81.51;98941.91;4939891;28;20203;-68
2021/10/27 12:18:10;;;;;;;2.50;2.30;;;;;;;16.65;89.34;98941.03;4938799;28;20221;-69
2021/10/27 12:20:41;;;;;;;4.03;2.40;;;;;;;16.89;84.28;98933.78;4888342;28;20245;-69
2021/10/27 12:23:20;;;;;;;2.33;2.07;;;;;;;17.20;81.81;98928.31;4904638;28;20210;-69
2021/10/27 12:25:51;;;;;;;2.63;2.07;;;;;;;17.19;79.50;98931.16;4940317;28;21218;-70
2021/10/27 12:28:29;;;;;;;6.57;2.40;;;;;;;16.35;86.03;98936.41;4931748;28;20230;-70
2021/10/27 12:30:57;;;;;;;3.07;2.60;;;;;;;16.35;88.90;98932.88;4931730;28;20254;-69
2021/10/27 12:33:39;;;;;;;2.60;2.40;;;;;;;16.05;89.05;98925.56;4925058;28;20210;-70
2021/10/27 12:36:23;;;;;;;2.87;2.63;;;;;;;15.82;89.61;98922.84;4895212;28;21333;-69
2021/10/27 12:39:15;;;;;;;3.90;2.70;;;;;;;15.52;99.47;98919.09;4940914;28;20206;-69
2021/10/27 12:41:45;;;;;;;3.43;2.83;;;;;;;16.46;89.96;98916.41;4942378;28;20249;-69
2021/10/27 12:44:21;;;;;;;2.47;2.37;;;;;;;16.87;84.51;98911.72;4939000;28;20211;-69
2021/10/27 12:47:06;;;;;;;4.57;2.87;;;;;;;17.26;82.69;98907.16;4937241;28;20214;-70
2021/10/27 12:49:34;;;;;;;4.00;2.80;;;;;;;17.68;76.98;98905.63;4926627;28;20222;-70
2021/10/27 12:52:29;;;;;;;4.57;3.40;;;;;;;17.05;79.41;98898.03;4900794;28;21110;-70
2021/10/27 12:55:15;;;;;;;4.37;3.97;;;;;;;17.90;73.19;98894.97;4931049;28;20302;-70
2021/10/27 12:57:59;;;;;;;3.30;3.03;;;;;;;17.18;77.64;98897.34;4940961;28;20238;-69
2021/10/27 13:00:32;;;;;;;3.60;3.40;;;;;;;17.07;77.68;98894.13;4940021;28;20229;-69
2021/10/27 13:03:41;;;;;;;3.37;3.10;;;;;;;17.66;76.01;98888.91;4923314;28;20313;-69
2021/10/27 13:06:22;;;;;;;7.17;5.53;;;;;;;18.25;69.26;98886.25;4940133;28;20425;-70
2021/10/27 13:09:09;;;;;;;4.87;4.37;;;;;;;18.22;69.35;98882.13;4895172;28;20223;-69
2021/10/27 13:11:45;;;;;;;4.20;3.07;;;;;;;18.19;68.91;98883.31;4938318;28;20242;-70
2021/10/27 13:14:36;;;;;;;10.73;9.57;;;;;;;18.44;68.76;98874.03;4922783;28;20714;-70
2021/10/27 13:23:07;;;;;;;2.00;1.90;;;;;;;19.05;62.79;98870.78;4900492;28;21706;-69
2021/10/27 13:31:09;;;;;;;4.00;3.57;;;;;;;17.58;70.01;98873.75;4940261;28;20481;-68
2021/10/27 13:33:37;;;;;;;5.10;3.57;;;;;;;16.26;79.58;98877.81;4942136;28;20595;-69
2021/10/27 13:36:06;;;;;;;3.53;3.33;;;;;;;15.82;86.57;98872.06;4931562;28;20214;-70
2021/10/27 13:38:36;;;;;;;4.37;3.97;;;;;;;15.43;93.12;98868.41;4905131;28;20207;-69
2021/10/27 13:41:08;;;;;;;3.90;3.63;;;;;;;15.41;92.45;98864.25;4939888;28;20646;-69
2021/10/27 13:43:39;;;;;;;9.73;6.93;;;;;;;14.74;100.00;98863.59;4940298;28;20595;-69
2021/10/27 13:46:26;;;;;;;9.33;7.97;;;;;;;14.71;100.00;98858.63;4941239;28;20507;-68
2021/10/27 14:08:16;;;;;;;7.53;3.23;;;;;;;15.68;90.82;98862.09;4935486;28;20287;-68
2021/10/27 14:10:47;;;;;;;3.37;3.17;;;;;;;15.49;93.13;98861.53;4896704;28;20238;-69
2021/10/27 14:13:23;;;;;;;3.83;3.50;;;;;;;15.39;94.27;98860.94;4943951;28;20752;-68
2021/10/27 14:16:12;;;;;;;4.33;3.03;;;;;;;15.22;96.10;98854.81;4932036;28;20214;-69
2021/10/27 14:18:53;;;;;;;3.90;3.70;;;;;;;15.24;95.34;98858.16;4941288;28;20316;-69
2021/10/27 14:41:31;;;;;;;4.20;3.40;;;;;;;16.41;87.32;98838.53;4943870;28;20554;-68